Terminal Aerodrome Forecast
Issued by NWS

Home | Current Version | Previous Version | Text Only | Print | Product List | Glossary On
Versions: 1 2 3 4 5 6 7 8 9 10 11 12 13 14 15 16 17 18 19 20 21 22 23 24 25 26 27 28 29 30 31 32 33 34 35 36 37 38 39 40 41 42 43 44 45 46 47 48
794
FTUS41 KBOX 011121
TAFACK
TAF
KACK 011121Z 0112/0212 07014G27KT 1SM SHRA BR OVC004
     FM011700 06013G20KT 3SM BR VCSH OVC008
     FM020100 05008KT 3/4SM -SHRA BR OVC008
     FM020500 02007KT 2SM -SHRA BR OVC008
     FM021100 01009KT 3SM BR VCSH OVC140=

USA.gov is the U.S. government's official web portal to all federal, state and local government web resources and services.